Time;durP1;ratioP1;P1;durP2;ratioP2;P2;SDS_P1;SDS_P2;PMS_P1;PMS_P2;Temp;Humidity;BMP_temperature;BMP_pressure;BME280_temperature;BME280_humidity;BME280_pressure;Samples;Min_cycle;Max_cycle;Signal;HPM_P1;HPM_P2
2020/12/21 00:01:20;;;;;;;9.10;3.53;;;7.30;97.20;;;;;;4990624;28;20050;-71
2020/12/21 00:03:45;;;;;;;12.35;4.18;;;7.20;97.20;;;;;;4984170;28;20053;-71
2020/12/21 00:06:15;;;;;;;14.45;4.55;;;7.20;97.30;;;;;;4995667;28;20391;-73
2020/12/21 00:08:42;;;;;;;15.57;4.70;;;7.10;97.50;;;;;;5002395;28;20108;-73
2020/12/21 00:11:08;;;;;;;12.55;4.60;;;7.10;97.60;;;;;;4992543;28;20052;-72
2020/12/21 00:13:33;;;;;;;12.15;5.03;;;7.10;97.80;;;;;;4983297;28;20393;-72
2020/12/21 00:15:59;;;;;;;15.45;4.63;;;7.00;98.00;;;;;;4998527;28;20049;-72
2020/12/21 00:18:25;;;;;;;12.05;4.72;;;6.90;98.10;;;;;;5003500;28;20053;-72
2020/12/21 00:20:50;;;;;;;13.70;5.05;;;6.90;98.20;;;;;;4994688;28;20487;-71
2020/12/21 00:23:16;;;;;;;17.05;5.13;;;6.90;98.40;;;;;;5001912;28;20042;-72
2020/12/21 00:25:42;;;;;;;13.85;4.55;;;6.80;98.50;;;;;;4998515;28;20412;-71
2020/12/21 00:28:08;;;;;;;17.25;5.22;;;6.80;98.50;;;;;;5003803;28;20041;-72
2020/12/21 00:30:34;;;;;;;15.20;5.47;;;6.70;98.60;;;;;;5000855;28;20045;-72
2020/12/21 00:33:00;;;;;;;14.25;5.50;;;6.70;98.70;;;;;;5002999;28;20054;-73
2020/12/21 00:35:27;;;;;;;14.20;4.72;;;6.70;98.80;;;;;;5000731;28;20431;-71
2020/12/21 00:37:53;;;;;;;20.02;4.88;;;6.80;98.80;;;;;;5002989;28;20046;-72
2020/12/21 00:40:19;;;;;;;16.98;5.38;;;6.70;98.70;;;;;;4995097;28;20092;-71
2020/12/21 00:42:45;;;;;;;14.82;5.20;;;6.80;98.50;;;;;;4983895;28;20073;-71
2020/12/21 00:45:11;;;;;;;11.27;4.13;;;6.80;98.40;;;;;;4988956;28;20384;-71
2020/12/21 00:47:36;;;;;;;16.73;4.85;;;6.90;98.50;;;;;;5002505;28;20140;-71
2020/12/21 00:50:04;;;;;;;13.23;5.13;;;6.90;98.20;;;;;;4999365;28;20040;-71
2020/12/21 00:52:29;;;;;;;14.02;4.90;;;6.80;98.30;;;;;;5001986;28;20053;-72
2020/12/21 00:54:55;;;;;;;12.05;3.75;;;6.80;98.30;;;;;;4996562;28;20058;-71
2020/12/21 00:57:21;;;;;;;13.63;4.95;;;6.80;98.30;;;;;;4983224;28;20042;-72
2020/12/21 00:59:46;;;;;;;13.45;4.20;;;6.70;98.60;;;;;;4987413;28;20463;-73
2020/12/21 01:02:12;;;;;;;12.68;4.30;;;6.80;98.30;;;;;;4983721;28;20054;-72
2020/12/21 01:04:38;;;;;;;9.40;4.40;;;6.70;98.30;;;;;;4984011;28;20069;-72
2020/12/21 01:07:04;;;;;;;11.95;4.18;;;6.80;98.30;;;;;;4999173;28;20050;-71
2020/12/21 01:09:30;;;;;;;13.38;4.78;;;6.80;98.20;;;;;;5000362;28;20536;-72
2020/12/21 01:11:56;;;;;;;20.08;6.05;;;6.90;98.20;;;;;;4983535;28;20051;-72
2020/12/21 01:14:22;;;;;;;10.63;4.20;;;6.80;98.20;;;;;;4983219;28;20530;-72
2020/12/21 01:16:47;;;;;;;13.63;4.78;;;6.80;98.20;;;;;;5004914;28;20157;-72
2020/12/21 01:19:13;;;;;;;21.23;4.60;;;6.80;98.20;;;;;;5005629;28;20611;-72
2020/12/21 01:21:39;;;;;;;14.80;4.82;;;6.80;98.40;;;;;;5006023;28;20053;-72
2020/12/21 01:24:05;;;;;;;14.95;4.43;;;6.80;98.30;;;;;;5001963;28;20300;-71
2020/12/21 01:26:30;;;;;;;13.00;4.53;;;6.80;98.30;;;;;;4987826;28;20038;-72
2020/12/21 01:28:56;;;;;;;13.95;5.55;;;6.80;98.30;;;;;;4988480;28;20046;-72
2020/12/21 01:31:22;;;;;;;15.48;5.10;;;6.80;98.50;;;;;;5006104;28;20227;-72
2020/12/21 01:33:49;;;;;;;20.15;4.47;;;6.80;98.20;;;;;;5003527;28;20275;-71
2020/12/21 01:36:16;;;;;;;12.27;4.50;;;6.90;98.00;;;;;;5003056;28;20092;-72
2020/12/21 01:38:42;;;;;;;14.75;5.47;;;6.90;98.00;;;;;;5003183;28;20042;-71
2020/12/21 01:41:08;;;;;;;14.32;4.97;;;6.90;98.00;;;;;;5004164;28;20080;-71
2020/12/21 01:43:34;;;;;;;16.85;5.18;;;6.80;97.90;;;;;;5006104;28;20042;-72
2020/12/21 01:46:11;;;;;;;14.02;5.25;;;6.80;97.90;;;;;;4990860;28;20193;-72
2020/12/21 01:48:38;;;;;;;13.57;5.13;;;6.80;98.00;;;;;;4986879;28;20544;-72
2020/12/21 01:51:05;;;;;;;19.95;5.80;;;6.70;98.10;;;;;;4987376;28;20062;-72
2020/12/21 01:53:37;;;;;;;16.48;5.00;;;6.70;98.20;;;;;;4987994;28;20050;-71
2020/12/21 01:56:04;;;;;;;12.82;5.25;;;6.70;98.30;;;;;;5002357;28;20050;-72
2020/12/21 01:58:31;;;;;;;14.00;4.57;;;6.60;98.30;;;;;;4987634;28;20104;-72
2020/12/21 02:01:00;;;;;;;12.93;4.65;;;6.60;98.30;;;;;;4987838;28;20053;-72
2020/12/21 02:03:26;;;;;;;18.45;5.45;;;6.60;98.30;;;;;;4986261;28;20054;-72
2020/12/21 02:05:52;;;;;;;17.92;4.97;;;6.60;98.30;;;;;;5002995;28;20077;-72
2020/12/21 02:08:18;;;;;;;15.98;5.60;;;6.50;98.30;;;;;;5004651;28;20151;-72
2020/12/21 02:10:43;;;;;;;12.75;4.93;;;6.50;98.30;;;;;;5004735;28;20176;-72
2020/12/21 02:13:09;;;;;;;17.63;4.85;;;6.40;98.40;;;;;;5004423;28;20038;-71
2020/12/21 02:15:34;;;;;;;19.00;4.68;;;6.50;98.30;;;;;;5002354;28;20045;-71
2020/12/21 02:18:00;;;;;;;21.58;4.35;;;6.40;98.40;;;;;;5001377;28;20050;-72
2020/12/21 02:20:32;;;;;;;15.80;4.88;;;6.40;98.30;;;;;;5000659;28;20499;-72
2020/12/21 02:22:58;;;;;;;12.02;4.35;;;6.40;98.30;;;;;;5001193;28;20391;-70
2020/12/21 02:25:24;;;;;;;15.75;4.93;;;6.40;98.30;;;;;;4988493;28;20049;-71
2020/12/21 02:27:50;;;;;;;15.60;4.63;;;6.50;98.40;;;;;;4988617;28;20042;-72
2020/12/21 02:30:16;;;;;;;10.43;4.25;;;6.50;98.20;;;;;;4988414;28;20046;-72
2020/12/21 02:32:42;;;;;;;14.30;4.85;;;6.40;98.20;;;;;;4987002;28;20042;-71
2020/12/21 02:35:08;;;;;;;13.43;4.30;;;6.40;98.30;;;;;;5003198;28;20049;-70
2020/12/21 02:37:34;;;;;;;13.07;4.00;;;6.40;98.30;;;;;;5019130;28;20057;-72
2020/12/21 02:39:59;;;;;;;22.25;5.65;;;6.40;98.30;;;;;;4990103;28;20065;-70
2020/12/21 02:42:25;;;;;;;10.65;4.18;;;6.40;98.20;;;;;;4986790;28;20496;-72
2020/12/21 02:44:51;;;;;;;16.60;4.80;;;6.40;98.20;;;;;;5003107;28;20490;-72
2020/12/21 02:47:16;;;;;;;15.55;5.47;;;6.30;98.20;;;;;;5005072;28;20053;-70
2020/12/21 02:49:42;;;;;;;14.77;4.88;;;6.30;98.30;;;;;;5001815;28;20107;-71
2020/12/21 02:52:08;;;;;;;15.23;4.93;;;6.20;98.30;;;;;;5003803;28;20052;-72
2020/12/21 02:54:33;;;;;;;12.55;5.85;;;6.20;98.40;;;;;;4999602;28;20056;-70
2020/12/21 02:56:59;;;;;;;13.15;5.43;;;6.20;98.70;;;;;;5003944;28;20140;-71
2020/12/21 02:59:25;;;;;;;15.98;7.05;;;6.10;98.60;;;;;;4990174;28;20579;-71
2020/12/21 03:01:51;;;;;;;16.33;6.88;;;6.10;98.70;;;;;;4985353;28;20053;-71
2020/12/21 03:04:16;;;;;;;14.55;6.47;;;6.10;98.80;;;;;;4996795;28;20053;-72
2020/12/21 03:06:42;;;;;;;12.35;6.45;;;6.10;98.80;;;;;;5003774;28;20133;-71
2020/12/21 03:09:08;;;;;;;16.10;5.75;;;6.10;99.00;;;;;;4990762;28;20061;-72
2020/12/21 03:11:33;;;;;;;14.25;5.97;;;6.10;98.90;;;;;;4984892;28;20046;-72
2020/12/21 03:13:59;;;;;;;12.52;6.00;;;6.10;98.80;;;;;;4994965;28;20479;-72
2020/12/21 03:16:24;;;;;;;15.52;6.13;;;6.20;98.80;;;;;;5004440;28;20042;-71
2020/12/21 03:18:51;;;;;;;13.27;6.60;;;6.20;98.80;;;;;;4992350;28;20070;-71
2020/12/21 03:21:16;;;;;;;12.73;6.78;;;6.10;98.90;;;;;;4985134;28;20042;-72
2020/12/21 03:23:43;;;;;;;18.25;6.72;;;6.10;99.00;;;;;;4984865;28;20514;-72
2020/12/21 03:26:08;;;;;;;18.10;8.18;;;6.10;99.00;;;;;;4984878;28;20050;-72
2020/12/21 03:28:34;;;;;;;18.05;7.97;;;6.00;99.10;;;;;;4990784;28;20132;-71
2020/12/21 03:31:00;;;;;;;18.45;6.95;;;6.00;99.10;;;;;;5004433;28;20050;-70
2020/12/21 03:33:26;;;;;;;22.35;7.07;;;6.00;99.00;;;;;;4995772;28;20046;-70
2020/12/21 03:35:51;;;;;;;12.68;7.63;;;6.00;99.10;;;;;;5002597;28;20708;-72
2020/12/21 03:38:17;;;;;;;22.20;8.90;;;5.90;99.10;;;;;;5001486;28;20048;-72
2020/12/21 03:40:43;;;;;;;18.13;8.93;;;5.90;99.30;;;;;;5001597;28;20466;-70
2020/12/21 03:43:09;;;;;;;23.63;9.68;;;6.00;99.20;;;;;;4994175;28;20074;-72
2020/12/21 03:45:35;;;;;;;19.58;9.38;;;6.00;99.10;;;;;;5002378;28;20050;-72
2020/12/21 03:48:00;;;;;;;15.70;9.20;;;6.00;99.20;;;;;;4990562;28;20081;-71
2020/12/21 03:50:26;;;;;;;16.83;10.32;;;6.00;99.20;;;;;;4984544;28;20065;-71
2020/12/21 03:52:52;;;;;;;17.27;8.43;;;5.90;99.30;;;;;;4994753;28;20435;-72
2020/12/21 03:55:17;;;;;;;25.73;10.75;;;5.90;99.20;;;;;;4984360;28;20511;-72
2020/12/21 03:57:43;;;;;;;23.48;12.88;;;5.90;99.30;;;;;;4994759;28;20226;-72
2020/12/21 04:00:09;;;;;;;24.38;11.60;;;6.00;99.30;;;;;;4984550;28;20117;-71
2020/12/21 04:02:36;;;;;;;22.08;11.63;;;6.00;99.30;;;;;;4984867;28;20294;-72
2020/12/21 04:05:04;;;;;;;24.55;11.63;;;6.00;99.40;;;;;;4984442;28;20065;-70
2020/12/21 04:07:30;;;;;;;22.92;12.63;;;6.00;99.40;;;;;;4983876;28;20220;-72
2020/12/21 04:09:56;;;;;;;20.55;12.02;;;6.00;99.40;;;;;;4983853;28;20626;-72
2020/12/21 04:12:21;;;;;;;22.75;10.85;;;6.00;99.40;;;;;;4985928;28;20318;-70
2020/12/21 04:14:47;;;;;;;24.00;12.63;;;6.00;99.50;;;;;;5003613;28;20698;-72
2020/12/21 04:17:13;;;;;;;31.05;14.38;;;6.00;99.50;;;;;;5008318;28;20268;-72
2020/12/21 04:19:38;;;;;;;28.25;13.25;;;6.00;99.50;;;;;;5002998;28;20041;-72
2020/12/21 04:22:04;;;;;;;28.35;13.45;;;6.00;99.50;;;;;;5000075;28;20050;-71
2020/12/21 04:24:30;;;;;;;25.15;13.65;;;6.00;99.60;;;;;;4983897;28;20065;-72
2020/12/21 04:26:55;;;;;;;25.80;14.30;;;6.00;99.60;;;;;;4987510;28;20093;-72
2020/12/21 04:29:21;;;;;;;32.00;14.05;;;6.00;99.60;;;;;;4984837;28;20046;-71
2020/12/21 04:31:47;;;;;;;29.00;13.50;;;6.00;99.70;;;;;;4985043;28;20046;-72
2020/12/21 04:34:12;;;;;;;25.83;13.27;;;6.00;99.70;;;;;;5002332;28;20482;-72
2020/12/21 04:36:38;;;;;;;26.08;13.55;;;6.00;99.80;;;;;;4990562;28;20046;-72
2020/12/21 04:39:03;;;;;;;23.83;14.18;;;5.90;99.80;;;;;;4996897;28;20534;-71
2020/12/21 04:41:29;;;;;;;30.30;14.10;;;6.00;99.90;;;;;;5000797;28;20053;-71
2020/12/21 04:43:56;;;;;;;38.92;13.98;;;6.00;99.90;;;;;;4986416;28;20057;-71
2020/12/21 04:46:22;;;;;;;37.35;13.32;;;5.90;99.90;;;;;;4991706;28;20046;-71
2020/12/21 04:48:48;;;;;;;31.30;13.05;;;5.90;99.90;;;;;;4987778;28;20038;-72
2020/12/21 04:51:16;;;;;;;19.88;12.00;;;6.00;99.90;;;;;;4992980;28;20065;-71
2020/12/21 04:53:42;;;;;;;35.28;13.65;;;5.90;99.90;;;;;;4987930;28;20046;-72
2020/12/21 04:56:08;;;;;;;28.20;12.13;;;6.00;99.90;;;;;;4992146;28;20053;-72
2020/12/21 04:58:34;;;;;;;28.45;11.95;;;6.00;99.90;;;;;;5000914;28;20088;-72
2020/12/21 05:01:00;;;;;;;29.50;11.20;;;6.00;99.90;;;;;;4995936;28;20050;-72
2020/12/21 05:03:26;;;;;;;28.48;11.70;;;6.00;99.90;;;;;;4994012;28;20058;-71
2020/12/21 05:06:06;;;;;;;20.55;10.93;;;6.00;99.80;;;;;;4998393;28;20108;-71
2020/12/21 05:08:32;;;;;;;28.45;11.65;;;6.00;99.90;;;;;;4999229;28;20061;-70
2020/12/21 05:11:00;;;;;;;28.25;10.82;;;6.00;99.80;;;;;;4993031;28;20053;-71
2020/12/21 05:13:26;;;;;;;23.08;11.45;;;6.00;99.90;;;;;;4999600;28;20049;-71
2020/12/21 05:15:53;;;;;;;27.10;10.95;;;6.00;99.80;;;;;;5015420;28;20119;-72
2020/12/21 05:18:30;;;;;;;33.55;11.18;;;6.00;99.80;;;;;;4987719;28;20380;-71
2020/12/21 05:21:01;;;;;;;25.80;10.30;;;6.00;99.70;;;;;;4995607;28;20129;-71
2020/12/21 05:23:27;;;;;;;29.77;11.25;;;6.00;99.70;;;;;;4984972;28;20483;-73
2020/12/21 05:26:10;;;;;;;26.60;11.18;;;6.00;99.70;;;;;;4986134;28;20053;-71
2020/12/21 05:28:37;;;;;;;;;;;6.10;99.70;;;;;;5000275;28;20050;-72
2020/12/21 05:31:10;;;;;;;24.67;11.32;;;6.00;99.70;;;;;;4994020;28;19928;-71
2020/12/21 05:33:56;;;;;;;26.52;10.75;;;6.00;99.70;;;;;;5002137;28;20046;-72
2020/12/21 05:36:23;;;;;;;35.20;11.57;;;6.00;99.70;;;;;;4985552;28;20049;-71
2020/12/21 05:39:01;;;;;;;25.42;10.35;;;5.90;99.80;;;;;;4983221;28;20058;-71
2020/12/21 05:41:27;;;;;;;23.40;11.57;;;5.80;99.60;;;;;;4984412;28;20051;-71
2020/12/21 05:43:53;;;;;;;23.83;11.68;;;5.70;99.90;;;;;;4983453;28;20046;-70
2020/12/21 05:46:24;;;;;;;28.23;12.40;;;5.70;99.90;;;;;;4996923;28;20115;-72
2020/12/21 05:48:55;;;;;;;33.53;12.82;;;5.50;99.80;;;;;;5002831;28;20386;-71
2020/12/21 05:51:24;;;;;;;26.67;13.82;;;5.40;99.90;;;;;;4984627;28;20321;-71
2020/12/21 05:53:58;;;;;;;28.20;13.40;;;5.30;99.90;;;;;;4983320;28;20243;-72
2020/12/21 05:56:25;;;;;;;33.78;14.48;;;5.20;99.90;;;;;;4982442;28;20043;-72
2020/12/21 05:58:53;;;;;;;30.45;14.77;;;5.20;99.90;;;;;;4983626;28;20442;-71
2020/12/21 06:01:20;;;;;;;26.42;14.13;;;5.20;99.90;;;;;;4997285;28;20042;-70
2020/12/21 06:03:50;;;;;;;35.33;16.20;;;5.10;99.90;;;;;;5005114;28;20050;-71
2020/12/21 06:06:25;;;;;;;33.22;15.68;;;5.10;99.90;;;;;;4989727;28;20050;-72
2020/12/21 06:08:55;;;;;;;39.90;15.93;;;5.10;99.90;;;;;;4986609;28;20081;-71
2020/12/21 06:11:23;;;;;;;39.15;16.95;;;5.10;99.90;;;;;;5000734;28;20128;-72
2020/12/21 06:14:15;;;;;;;33.58;15.68;;;5.00;99.90;;;;;;5021798;28;20073;-70
2020/12/21 06:16:41;;;;;;;39.63;18.67;;;5.00;99.90;;;;;;5002821;28;20061;-72
2020/12/21 06:19:09;;;;;;;41.10;18.48;;;5.00;99.90;;;;;;5005655;28;20054;-71
2020/12/21 06:21:48;;;;;;;44.55;17.92;;;5.00;99.90;;;;;;5001617;28;20042;-71
2020/12/21 06:24:19;;;;;;;36.78;17.52;;;5.00;99.90;;;;;;4995124;28;20354;-70
2020/12/21 06:26:45;;;;;;;39.33;19.80;;;5.00;99.90;;;;;;4988020;28;20054;-70
2020/12/21 06:29:16;;;;;;;42.25;18.73;;;5.00;99.90;;;;;;4995017;28;20091;-72
2020/12/21 06:31:45;;;;;;;47.55;20.08;;;5.00;99.90;;;;;;4986429;28;20129;-71
2020/12/21 06:34:16;;;;;;;42.97;19.70;;;5.00;99.90;;;;;;4994621;28;20050;-71
2020/12/21 06:36:43;;;;;;;48.05;19.00;;;5.00;99.90;;;;;;4985363;28;20035;-71
2020/12/21 06:39:09;;;;;;;35.30;18.58;;;5.00;99.90;;;;;;4993228;28;20050;-70
2020/12/21 06:41:35;;;;;;;41.03;18.95;;;5.00;99.90;;;;;;4988401;28;20057;-71
2020/12/21 06:44:07;;;;;;;46.97;19.52;;;5.00;99.90;;;;;;4992111;28;20045;-70
2020/12/21 06:46:36;;;;;;;48.70;19.70;;;5.00;99.90;;;;;;5002146;28;20198;-70
2020/12/21 06:49:09;;;;;;;43.33;19.08;;;5.00;99.90;;;;;;4998640;28;20129;-71
2020/12/21 06:51:40;;;;;;;45.40;19.45;;;5.00;99.90;;;;;;4999363;28;20038;-70
2020/12/21 06:54:06;;;;;;;41.20;18.48;;;5.00;99.90;;;;;;5003396;28;20494;-71
2020/12/21 06:56:32;;;;;;;36.00;17.73;;;5.00;99.90;;;;;;4990113;28;20096;-71
2020/12/21 06:58:59;;;;;;;41.63;20.30;;;5.00;99.90;;;;;;4986508;28;20065;-72
2020/12/21 07:01:29;;;;;;;35.13;17.13;;;5.00;99.90;;;;;;5000174;28;20050;-72
2020/12/21 07:03:56;;;;;;;50.00;19.38;;;5.00;99.90;;;;;;5000157;28;20121;-72
2020/12/21 07:06:21;;;;;;;43.90;20.13;;;5.10;99.90;;;;;;5000500;28;20262;-71
2020/12/21 07:08:49;;;;;;;37.83;20.52;;;5.10;99.90;;;;;;5000791;28;20046;-71
2020/12/21 07:11:20;;;;;;;36.22;20.10;;;5.10;99.90;;;;;;4995085;28;20048;-70
2020/12/21 07:13:49;;;;;;;37.20;19.08;;;5.10;99.90;;;;;;4996157;28;20180;-70
2020/12/21 07:16:17;;;;;;;40.22;19.40;;;5.20;99.90;;;;;;5000353;28;20038;-72
2020/12/21 07:18:43;;;;;;;43.92;20.75;;;5.20;99.90;;;;;;4994161;28;20037;-70
2020/12/21 07:21:10;;;;;;;45.22;20.10;;;5.30;99.90;;;;;;5002102;28;20353;-70
2020/12/21 07:23:37;;;;;;;35.22;18.05;;;5.30;99.90;;;;;;4999731;28;20116;-69
2020/12/21 07:26:02;;;;;;;45.85;19.02;;;5.30;99.90;;;;;;5002551;28;20065;-70
2020/12/21 07:28:29;;;;;;;52.35;18.77;;;5.30;99.90;;;;;;5003730;28;20038;-70
2020/12/21 07:31:27;;;;;;;41.08;18.63;;;5.30;99.90;;;;;;4997588;28;20065;-70
2020/12/21 07:33:58;;;;;;;40.08;19.85;;;5.30;99.90;;;;;;4992651;28;20077;-70
2020/12/21 07:36:34;;;;;;;41.92;18.30;;;5.30;99.90;;;;;;5001314;28;20410;-68
2020/12/21 07:39:08;;;;;;;45.33;19.20;;;5.30;99.90;;;;;;5003572;28;20458;-70
2020/12/21 07:41:36;;;;;;;38.25;19.73;;;5.30;99.90;;;;;;4987969;28;20045;-70
2020/12/21 07:44:04;;;;;;;46.58;18.63;;;5.30;99.90;;;;;;4993575;28;20128;-70
2020/12/21 07:46:37;;;;;;;41.38;20.13;;;5.30;99.90;;;;;;4991961;28;20092;-70
2020/12/21 07:49:05;;;;;;;47.22;19.83;;;5.30;99.90;;;;;;4998616;28;20364;-70
2020/12/21 07:51:31;;;;;;;43.75;17.92;;;5.30;99.90;;;;;;4999549;28;20053;-70
2020/12/21 07:54:00;;;;;;;38.78;19.67;;;5.30;99.90;;;;;;5000918;28;20041;-69
2020/12/21 07:56:26;;;;;;;46.20;22.00;;;5.30;99.90;;;;;;5001519;28;20491;-71
2020/12/21 07:58:51;;;;;;;44.90;17.88;;;5.40;99.90;;;;;;4998305;28;20050;-70
2020/12/21 08:01:22;;;;;;;45.00;18.23;;;5.30;99.90;;;;;;4989168;28;20046;-71
2020/12/21 08:03:50;;;;;;;44.38;20.58;;;5.30;99.90;;;;;;5000432;28;20104;-70
2020/12/21 08:06:18;;;;;;;34.60;18.27;;;5.40;99.90;;;;;;5001309;28;20061;-71
2020/12/21 08:08:44;;;;;;;50.40;16.88;;;5.40;99.90;;;;;;5001647;28;20133;-70
2020/12/21 08:11:16;;;;;;;35.25;16.20;;;5.40;99.90;;;;;;4996935;28;20129;-71
2020/12/21 08:13:49;;;;;;;31.67;16.77;;;5.40;99.90;;;;;;5013854;28;20049;-69
2020/12/21 08:16:16;;;;;;;43.72;17.42;;;5.50;99.90;;;;;;5002136;28;20096;-71
2020/12/21 08:18:45;;;;;;;35.33;17.35;;;5.50;99.90;;;;;;5000771;28;20486;-70
2020/12/21 08:21:14;;;;;;;33.08;15.98;;;5.50;99.90;;;;;;5001626;28;20263;-68
2020/12/21 08:23:40;;;;;;;36.45;15.60;;;5.50;99.90;;;;;;5001481;28;20073;-70
2020/12/21 08:26:16;;;;;;;33.83;15.25;;;5.50;99.90;;;;;;4990884;28;20046;-72
2020/12/21 08:28:41;;;;;;;35.65;15.98;;;5.50;99.90;;;;;;4995498;28;20046;-70
2020/12/21 08:31:13;;;;;;;39.70;16.38;;;5.50;99.90;;;;;;4997989;28;20068;-71
2020/12/21 08:33:42;;;;;;;32.92;16.58;;;5.50;99.90;;;;;;4989636;28;20492;-72
2020/12/21 08:36:22;;;;;;;33.00;15.68;;;5.60;99.90;;;;;;5000844;28;20096;-71
2020/12/21 08:38:49;;;;;;;44.00;16.30;;;5.60;99.90;;;;;;4988414;28;20043;-71
2020/12/21 08:41:15;;;;;;;34.08;14.73;;;5.60;99.90;;;;;;4994348;28;20418;-70
2020/12/21 08:43:40;;;;;;;32.35;15.70;;;5.70;99.90;;;;;;5000684;28;20317;-72
2020/12/21 08:46:13;;;;;;;35.05;14.60;;;5.70;99.90;;;;;;5000010;28;20093;-71
2020/12/21 08:48:41;;;;;;;30.92;13.25;;;5.70;99.90;;;;;;4982733;28;20084;-72
2020/12/21 08:51:07;;;;;;;32.40;14.13;;;5.70;99.90;;;;;;4985715;28;20050;-73
2020/12/21 08:53:32;;;;;;;39.17;15.02;;;5.70;99.90;;;;;;5002343;28;20046;-72
2020/12/21 08:55:58;;;;;;;28.95;12.85;;;5.80;99.90;;;;;;4992708;28;20443;-71
2020/12/21 08:58:24;;;;;;;40.95;14.02;;;5.80;99.90;;;;;;4996631;28;20050;-71
2020/12/21 09:00:49;;;;;;;37.78;15.30;;;5.80;99.90;;;;;;4989082;28;20260;-71
2020/12/21 09:03:15;;;;;;;32.22;14.90;;;5.80;99.90;;;;;;4992385;28;20096;-71
2020/12/21 09:05:41;;;;;;;34.85;13.38;;;5.80;99.90;;;;;;4997489;28;20734;-71
2020/12/21 09:08:07;;;;;;;27.05;12.68;;;5.90;99.90;;;;;;5001865;28;20129;-76
2020/12/21 09:10:33;;;;;;;29.25;13.15;;;5.90;99.90;;;;;;4995142;28;20039;-72
2020/12/21 09:12:58;;;;;;;39.40;14.95;;;5.90;99.90;;;;;;4992428;28;20057;-72
2020/12/21 09:15:24;;;;;;;30.13;14.40;;;5.90;99.90;;;;;;4993317;28;20049;-71
2020/12/21 09:17:49;;;;;;;28.80;13.88;;;5.90;99.90;;;;;;5002778;28;20038;-72
2020/12/21 09:20:15;;;;;;;38.90;13.48;;;6.00;99.90;;;;;;5000677;28;20030;-70
2020/12/21 09:22:40;;;;;;;38.17;14.35;;;6.00;99.90;;;;;;4998934;28;20188;-70
2020/12/21 09:25:06;;;;;;;26.55;13.50;;;6.00;99.90;;;;;;4999829;28;20112;-71
2020/12/21 09:27:32;;;;;;;33.22;14.43;;;6.10;99.90;;;;;;5001357;28;20042;-73
2020/12/21 09:29:57;;;;;;;31.20;13.77;;;6.10;99.90;;;;;;5001109;28;20048;-72
2020/12/21 09:32:23;;;;;;;24.38;13.80;;;6.10;99.90;;;;;;5001267;28;20061;-73
2020/12/21 09:34:49;;;;;;;37.75;13.95;;;6.20;99.90;;;;;;4989489;28;20456;-72
2020/12/21 09:37:14;;;;;;;30.98;14.15;;;6.20;99.90;;;;;;4988440;28;20058;-72
2020/12/21 09:39:40;;;;;;;30.25;12.95;;;6.20;99.90;;;;;;5005520;28;20519;-71
2020/12/21 09:42:06;;;;;;;23.42;12.45;;;6.30;99.90;;;;;;5005185;28;20084;-73
2020/12/21 09:44:31;;;;;;;40.95;13.65;;;6.30;99.90;;;;;;4994494;28;20045;-72
2020/12/21 09:46:57;;;;;;;39.70;14.20;;;6.30;99.90;;;;;;5004526;28;20078;-72
2020/12/21 09:49:23;;;;;;;34.97;12.82;;;6.30;99.90;;;;;;5000108;28;20041;-72
2020/12/21 09:51:50;;;;;;;29.90;12.63;;;6.30;99.90;;;;;;5002208;28;20566;-72
2020/12/21 09:54:16;;;;;;;31.98;11.45;;;6.30;99.90;;;;;;5005052;28;20074;-71
2020/12/21 09:56:46;;;;;;;26.65;11.27;;;6.30;99.90;;;;;;5003476;28;20611;-72
2020/12/21 09:59:11;;;;;;;29.25;11.18;;;6.30;99.90;;;;;;4993919;28;20512;-72
2020/12/21 10:01:37;;;;;;;37.85;10.90;;;6.30;99.90;;;;;;5001848;28;20046;-71
2020/12/21 10:04:03;;;;;;;31.42;12.07;;;6.40;99.90;;;;;;5003812;28;20104;-72
2020/12/21 10:06:29;;;;;;;30.08;12.38;;;6.40;99.90;;;;;;4996946;28;20050;-72
2020/12/21 10:08:54;;;;;;;25.85;10.25;;;6.40;99.90;;;;;;5000488;28;20064;-72
2020/12/21 10:11:20;;;;;;;23.50;10.63;;;6.40;99.90;;;;;;5004200;28;20107;-72
2020/12/21 10:13:45;;;;;;;26.45;10.77;;;6.40;99.90;;;;;;5004472;28;20053;-72
2020/12/21 10:16:12;;;;;;;27.00;11.25;;;6.40;99.90;;;;;;5005358;28;20124;-71
2020/12/21 10:18:39;;;;;;;23.38;10.88;;;6.40;99.90;;;;;;4997050;28;20621;-73
2020/12/21 10:21:06;;;;;;;30.70;10.55;;;6.40;99.90;;;;;;5006232;28;20049;-73
2020/12/21 10:23:31;;;;;;;30.55;10.50;;;6.40;99.90;;;;;;4994408;28;20702;-71
2020/12/21 10:26:00;;;;;;;27.65;10.85;;;6.40;99.90;;;;;;4998494;28;20038;-73
2020/12/21 10:28:26;;;;;;;19.67;10.05;;;6.50;99.90;;;;;;5003961;28;20501;-73
2020/12/21 10:30:52;;;;;;;26.48;11.25;;;6.50;99.90;;;;;;5002977;28;20073;-72
2020/12/21 10:33:18;;;;;;;25.25;10.18;;;6.50;99.90;;;;;;5002340;28;20513;-72
2020/12/21 10:35:43;;;;;;;24.88;10.10;;;6.50;99.90;;;;;;4996727;28;20042;-72
2020/12/21 10:38:09;;;;;;;26.70;10.98;;;6.50;99.90;;;;;;5017342;28;20042;-71
2020/12/21 10:40:34;;;;;;;26.55;11.23;;;6.60;99.90;;;;;;5001781;28;20041;-72
2020/12/21 10:43:00;;;;;;;35.13;11.65;;;6.60;99.90;;;;;;4989043;28;20525;-71
2020/12/21 10:45:26;;;;;;;19.98;10.50;;;6.60;99.90;;;;;;5000692;28;20042;-71
2020/12/21 10:47:51;;;;;;;24.10;10.73;;;6.70;99.90;;;;;;4996122;28;20069;-72
2020/12/21 10:50:17;;;;;;;32.95;12.57;;;6.70;99.90;;;;;;4993821;28;20049;-73
2020/12/21 10:52:42;;;;;;;30.88;10.52;;;6.70;99.90;;;;;;4988297;28;20402;-72
2020/12/21 10:55:08;;;;;;;31.95;11.35;;;6.70;99.90;;;;;;4998508;28;20050;-72
2020/12/21 10:57:34;;;;;;;23.52;10.45;;;6.70;99.90;;;;;;5002757;28;20041;-72
2020/12/21 11:00:00;;;;;;;27.02;11.38;;;6.70;99.90;;;;;;5002050;28;20072;-72
2020/12/21 11:02:25;;;;;;;27.90;10.40;;;6.70;99.90;;;;;;5002300;28;20071;-72
2020/12/21 11:04:52;;;;;;;35.85;13.10;;;6.70;99.90;;;;;;5002777;28;20054;-73
2020/12/21 11:07:17;;;;;;;18.45;11.13;;;6.70;99.90;;;;;;4991565;28;20051;-73
2020/12/21 11:09:43;;;;;;;25.85;10.85;;;6.70;99.90;;;;;;4990835;28;20518;-72
2020/12/21 11:12:09;;;;;;;32.88;12.18;;;6.70;99.90;;;;;;4997899;28;20046;-74
2020/12/21 11:14:34;;;;;;;29.80;12.20;;;6.70;99.90;;;;;;5003745;28;20085;-73
2020/12/21 11:17:00;;;;;;;25.05;10.95;;;6.80;99.90;;;;;;4997903;28;20076;-75
2020/12/21 11:19:26;;;;;;;24.50;10.65;;;6.80;99.90;;;;;;4998194;28;20065;-72
2020/12/21 11:21:51;;;;;;;24.85;12.07;;;6.80;99.90;;;;;;4991031;28;20539;-71
2020/12/21 11:24:17;;;;;;;26.33;10.13;;;6.90;99.90;;;;;;4994661;28;20054;-74
2020/12/21 11:26:43;;;;;;;26.83;11.32;;;6.90;99.90;;;;;;5001595;28;20264;-73
2020/12/21 11:29:08;;;;;;;23.58;10.75;;;7.00;99.90;;;;;;4999958;28;20495;-72
2020/12/21 11:31:36;;;;;;;25.38;11.60;;;7.00;99.90;;;;;;4983935;28;20511;-73
2020/12/21 11:34:05;;;;;;;22.50;10.43;;;7.00;99.90;;;;;;4996642;28;20034;-72
2020/12/21 11:36:31;;;;;;;18.33;11.35;;;7.10;99.90;;;;;;5012599;28;20523;-72
2020/12/21 11:38:56;;;;;;;29.73;12.48;;;7.10;99.90;;;;;;5002519;28;20065;-71
2020/12/21 11:41:28;;;;;;;23.42;10.85;;;7.20;99.90;;;;;;5003194;28;20444;-71
2020/12/21 11:43:54;;;;;;;24.55;12.48;;;7.20;99.90;;;;;;5003146;28;20415;-73
2020/12/21 11:46:20;;;;;;;24.73;10.75;;;7.20;99.90;;;;;;4991332;28;20049;-73
2020/12/21 11:48:45;;;;;;;27.90;12.18;;;7.20;99.90;;;;;;4995372;28;20042;-73
2020/12/21 11:51:16;;;;;;;24.90;10.40;;;7.30;99.70;;;;;;4986878;28;20125;-73
2020/12/21 11:53:42;;;;;;;23.38;10.23;;;7.30;99.80;;;;;;4996818;28;20057;-71
2020/12/21 11:56:07;;;;;;;27.33;11.10;;;7.40;99.80;;;;;;5000485;28;20042;-72
2020/12/21 11:58:33;;;;;;;20.02;10.23;;;7.40;99.70;;;;;;5001423;28;20056;-71
2020/12/21 12:00:58;;;;;;;19.23;10.20;;;7.40;99.70;;;;;;4990394;28;20128;-74
2020/12/21 12:03:24;;;;;;;25.85;11.48;;;7.40;99.80;;;;;;4997235;28;20406;-73
2020/12/21 12:05:50;;;;;;;29.15;9.48;;;7.40;99.70;;;;;;4989765;28;20049;-71
2020/12/21 12:08:16;;;;;;;19.95;9.77;;;7.40;99.50;;;;;;5000564;28;20054;-73
2020/12/21 12:10:41;;;;;;;21.05;8.25;;;7.40;99.60;;;;;;4985373;28;20129;-72
2020/12/21 12:13:07;;;;;;;19.63;8.60;;;7.50;99.50;;;;;;4983808;28;20058;-72
2020/12/21 12:15:33;;;;;;;21.55;8.07;;;7.50;99.40;;;;;;5000190;28;20053;-72
2020/12/21 12:17:58;;;;;;;19.83;7.88;;;7.50;99.40;;;;;;5003087;28;20041;-73
2020/12/21 12:20:24;;;;;;;23.27;7.82;;;7.50;99.40;;;;;;4984467;28;20472;-73
2020/12/21 12:22:49;;;;;;;16.40;6.93;;;7.50;99.40;;;;;;4983955;28;20120;-72
2020/12/21 12:25:15;;;;;;;15.15;7.25;;;7.50;99.30;;;;;;4985928;28;20046;-73
2020/12/21 12:27:40;;;;;;;8.65;5.00;;;7.50;99.40;;;;;;4982817;28;20054;-73
2020/12/21 12:30:06;;;;;;;16.25;6.95;;;7.60;99.20;;;;;;4987185;28;20529;-73
2020/12/21 12:32:31;;;;;;;18.63;6.25;;;7.50;99.30;;;;;;4988187;28;20442;-72
2020/12/21 12:34:57;;;;;;;11.85;6.70;;;7.50;99.40;;;;;;4991289;28;20104;-73
2020/12/21 12:37:23;;;;;;;15.50;6.80;;;7.50;99.30;;;;;;4993785;28;20050;-72
2020/12/21 12:39:48;;;;;;;24.83;8.90;;;7.50;99.40;;;;;;4990559;28;20543;-73